Navigare Pars — OXNC2 — position and weather

sailwx.info

Track history (hours):
 
Tides and Currents Weather Stations Pressure Air Temp Water Temp Dewpoint Dewpoint Depression Visibility Wind Speed Wind Dir Waves Ship Positions

Navigare Pars

Last reported at 2017-Sep-09 16:23 UTC. Time now 2017-Sep-21 18:00 UTC.
Position N 49°45' W 004°09'.
Warning: this ship's position is 12 days out of date.

Length 183 m; draft 11 m.

Type: Ship. MMSI: 219006000.

Date/timePositionNaut miles runAvg speedWind from/ knotsBaromVisibWave heightAir tempDewpointWater temp
2017-Sep-09 16:23N 49°45' W 004°09'612.7
2017-Sep-09 15:54N 49°47' W 004°00'513.3
2017-Sep-09 15:30N 49°48' W 003°53'713.6
2017-Sep-09 15:01N 49°51' W 003°43'714.1
2017-Sep-09 14:31N 49°53' W 003°32'714.3
2017-Sep-09 14:01N 49°55' W 003°22'714.0
2017-Sep-09 13:30N 49°58' W 003°12'713.2
2017-Sep-09 13:00N 49°59' W 003°02'612.9
2017-Sep-09 12:30N 50°01' W 002°52'612.3
2017-Sep-09 12:00N 50°03' W 002°43'2410.2
2017-Sep-09 09:39N 50°09' W 002°07'2 8.9
2017-Sep-09 09:25N 50°09' W 002°04'4 8.9
2017-Sep-09 08:59N 50°10' W 001°58'4 9.1
2017-Sep-09 08:30N 50°12' W 001°52'5 9.8
2017-Sep-09 08:00N 50°13' W 001°44'610.8
2017-Sep-09 07:29N 50°14' W 001°36'611.7
2017-Sep-09 07:00N 50°16' W 001°27'612.9
2017-Sep-09 06:30N 50°18' W 001°18'3515.1
2017-Sep-09 04:10N 50°27' W 000°24'215.0
2017-Sep-09 04:00N 50°27' W 000°20'714.7
2017-Sep-09 03:30N 50°30' W 000°09'714.3
2017-Sep-09 03:00N 50°32' E 000°01'714.0
2017-Sep-09 02:30N 50°34' E 000°12'713.4
2017-Sep-09 02:00N 50°35' E 000°22'613.0
2017-Sep-09 01:31N 50°37' E 000°32'612.3
2017-Sep-09 01:01N 50°39' E 000°41'612.0
2017-Sep-09 00:31N 50°43' E 000°48'611.5
2017-Sep-09 00:00N 50°47' E 000°56'611.4
2017-Sep-08 23:31N 50°50' E 001°02'611.6
2017-Sep-08 22:59N 50°55' E 001°09'612.3
2017-Sep-08 22:30N 50°59' E 001°16'713.4
2017-Sep-08 22:00N 51°03' E 001°24'715.0
2017-Sep-08 21:31N 51°07' E 001°34'815.4
2017-Sep-08 21:01N 51°12' E 001°43'714.9
2017-Sep-08 20:30N 51°19' E 001°50'714.2
2017-Sep-08 20:00N 51°25' E 001°55'713.3
2017-Sep-08 19:30N 51°30' E 002°02'712.6
2017-Sep-08 18:59N 51°34' E 002°09'8511.2
2017-Sep-08 11:23N 52°32' E 003°50'512.0
2017-Sep-08 11:00N 52°32' E 003°58'612.2
2017-Sep-08 10:30N 52°31' E 004°08'611.9
2017-Sep-08 10:00N 52°30' E 004°17'611.1
2017-Sep-08 09:30N 52°29' E 004°26'5 9.3
2017-Sep-08 09:01N 52°28' E 004°34'2 3.4
2017-Sep-08 08:30N 52°28' E 004°37'0 0.2
2017-Sep-08 08:00N 52°28' E 004°37'1 2.0
2017-Sep-08 07:30N 52°28' E 004°38'2 4.6
2017-Sep-08 07:00N 52°27' E 004°42'3 6.7
2017-Sep-08 06:30N 52°25' E 004°46'1 0.9
2017-Sep-08 05:56N 52°25' E 004°46'0 0.0
2017-Sep-08 05:26N 52°25' E 004°46'0 0.0
2017-Sep-08 04:59N 52°25' E 004°46'0 0.0
2017-Sep-08 04:23N 52°25' E 004°46'0 0.0
2017-Sep-08 03:56N 52°25' E 004°46'0 0.0
2017-Sep-08 03:29N 52°25' E 004°46'0 0.0
2017-Sep-08 02:59N 52°25' E 004°46'0 0.0
2017-Sep-08 02:26N 52°25' E 004°46'0 0.0
2017-Sep-08 01:59N 52°25' E 004°46'0 0.0
2017-Sep-08 01:29N 52°25' E 004°46'0 0.0
2017-Sep-08 00:47N 52°25' E 004°46'0 0.0
2017-Sep-08 00:26N 52°25' E 004°46'0 0.0
2017-Sep-07 23:56N 52°25' E 004°46'0 0.0
2017-Sep-07 23:29N 52°25' E 004°46'0 0.0
2017-Sep-07 22:59N 52°25' E 004°46'0 0.0
2017-Sep-07 22:29N 52°25' E 004°46'0 0.0
2017-Sep-07 21:59N 52°25' E 004°46'0 0.0
2017-Sep-07 21:26N 52°25' E 004°46'0 0.0
2017-Sep-07 20:59N 52°25' E 004°46'0 0.0
2017-Sep-07 20:29N 52°25' E 004°46'0 0.0
2017-Sep-07 19:53N 52°25' E 004°46'0 0.0
2017-Sep-07 19:26N 52°25' E 004°46'0 0.0
2017-Sep-07 18:47N 52°25' E 004°46'0 0.0
2017-Sep-07 18:20N 52°25' E 004°46'0 0.0
2017-Sep-07 17:59N 52°25' E 004°46'0 0.0
2017-Sep-07 17:17N 52°25' E 004°46'0 0.0
2017-Sep-07 16:59N 52°25' E 004°46'0 0.0
2017-Sep-07 16:29N 52°25' E 004°46'0 0.0
2017-Sep-07 15:56N 52°25' E 004°46'0 0.0
2017-Sep-07 15:29N 52°25' E 004°46'0 0.0
2017-Sep-07 14:44N 52°25' E 004°46'0 0.0
2017-Sep-07 14:23N 52°25' E 004°46'0 0.0
2017-Sep-07 13:53N 52°25' E 004°46'0 0.0
2017-Sep-07 13:29N 52°25' E 004°46'0 0.0
2017-Sep-07 12:59N 52°25' E 004°46'0 0.0
2017-Sep-07 12:26N 52°25' E 004°46'0 0.0
2017-Sep-07 11:59N 52°25' E 004°46'0 0.0
2017-Sep-07 11:17N 52°25' E 004°46'0 0.0
2017-Sep-07 10:53N 52°25' E 004°46'0 0.0
2017-Sep-07 10:29N 52°25' E 004°46'0 0.0
2017-Sep-07 09:44N 52°25' E 004°46'0 0.0
2017-Sep-07 09:05N 52°25' E 004°46'0 0.0
2017-Sep-07 08:47N 52°25' E 004°46'0 0.0
2017-Sep-07 08:23N 52°25' E 004°46'0 0.0
2017-Sep-07 07:59N 52°25' E 004°46'0 0.0
2017-Sep-07 07:17N 52°25' E 004°46'0 0.0
2017-Sep-07 06:53N 52°25' E 004°46'0 0.0
2017-Sep-07 06:20N 52°25' E 004°46'0 0.0
2017-Sep-07 05:59N 52°25' E 004°46'0 0.0
2017-Sep-07 05:29N 52°25' E 004°46'0 0.0
2017-Sep-07 04:26N 52°25' E 004°46'0 0.0
2017-Sep-07 03:59N 52°25' E 004°46'0 0.0
2017-Sep-07 03:29N 52°25' E 004°46'0 0.0
2017-Sep-07 02:56N 52°25' E 004°46'0 0.0
2017-Sep-07 02:26N 52°25' E 004°46'0 0.0
2017-Sep-07 01:50N 52°25' E 004°46'0 0.0
2017-Sep-07 01:29N 52°25' E 004°46'0 0.0
2017-Sep-07 00:59N 52°25' E 004°46'0 0.0
2017-Sep-07 00:29N 52°25' E 004°46'0 0.0
2017-Sep-06 23:50N 52°25' E 004°46'0 0.0
2017-Sep-06 23:26N 52°25' E 004°46'0 0.0
2017-Sep-06 22:59N 52°25' E 004°46'0 0.0
2017-Sep-06 22:29N 52°25' E 004°46'0 0.0
2017-Sep-06 21:56N 52°25' E 004°46'0 0.0
2017-Sep-06 21:29N 52°25' E 004°46'0 0.0
2017-Sep-06 20:59N 52°25' E 004°46'0 0.0
2017-Sep-06 20:29N 52°25' E 004°46'0 0.0
2017-Sep-06 19:56N 52°25' E 004°46'0 0.0
2017-Sep-06 19:26N 52°25' E 004°46'0 0.0
2017-Sep-06 18:59N 52°25' E 004°46'0 0.0
2017-Sep-06 18:29N 52°25' E 004°46'0 0.0
2017-Sep-06 17:56N 52°25' E 004°46'0 0.0
2017-Sep-06 17:26N 52°25' E 004°46'0 0.0
2017-Sep-06 16:59N 52°25' E 004°46'0 0.0
2017-Sep-06 16:26N 52°25' E 004°46'0 0.0
2017-Sep-06 15:56N 52°25' E 004°46'0 0.0
2017-Sep-06 15:26N 52°25' E 004°46'0 0.0
2017-Sep-06 14:56N 52°25' E 004°46'0 0.0
2017-Sep-06 14:23N 52°25' E 004°46'0 0.0
2017-Sep-06 13:59N 52°25' E 004°46'0 0.0
2017-Sep-06 13:26N 52°25' E 004°46'0 0.0
2017-Sep-06 12:59N 52°25' E 004°46'0 0.0
2017-Sep-06 12:29N 52°25' E 004°46'0 0.0
2017-Sep-06 11:59N 52°25' E 004°46'0 0.0
2017-Sep-06 11:11N 52°25' E 004°46'0 0.0
2017-Sep-06 10:59N 52°25' E 004°46'0 0.0
2017-Sep-06 10:29N 52°25' E 004°46'0 0.0
2017-Sep-06 09:41N 52°25' E 004°46'0 0.0
2017-Sep-06 09:29N 52°25' E 004°46'0 0.0
2017-Sep-06 08:59N 52°25' E 004°46'0 0.0
2017-Sep-06 08:20N 52°25' E 004°46'0 0.0
2017-Sep-06 07:56N 52°25' E 004°46'0 0.0
2017-Sep-06 07:26N 52°25' E 004°46'0 0.0
2017-Sep-06 06:50N 52°25' E 004°46'0 0.0
2017-Sep-06 06:29N 52°25' E 004°46'0 0.0
2017-Sep-06 05:59N 52°25' E 004°46'0 0.0
2017-Sep-06 05:26N 52°25' E 004°46'0 0.0
2017-Sep-06 04:59N 52°25' E 004°46'0 0.0
2017-Sep-06 04:29N 52°25' E 004°46'0 0.0
2017-Sep-06 03:47N 52°25' E 004°46'0 0.0
2017-Sep-06 03:23N 52°25' E 004°46'0 0.0
2017-Sep-06 02:59N 52°25' E 004°46'0 0.0
2017-Sep-06 02:29N 52°25' E 004°46'0 0.0
2017-Sep-06 01:56N 52°25' E 004°46'0 0.0
2017-Sep-06 01:29N 52°25' E 004°46'0 0.0
2017-Sep-06 00:59N 52°25' E 004°46'0 0.0
2017-Sep-06 00:29N 52°25' E 004°46'0 0.0
2017-Sep-05 23:59N 52°25' E 004°46'0 0.0
2017-Sep-05 23:26N 52°25' E 004°46'0 0.0
2017-Sep-05 22:59N 52°25' E 004°46'0 0.0
2017-Sep-05 22:29N 52°25' E 004°46'0 0.0
2017-Sep-05 21:50N 52°25' E 004°46'0 0.0
2017-Sep-05 21:29N 52°25' E 004°46'0 0.0
2017-Sep-05 20:59N 52°25' E 004°46'0 0.0
2017-Sep-05 20:29N 52°25' E 004°46'0 0.0
2017-Sep-05 19:56N 52°25' E 004°46'0 0.0
2017-Sep-05 19:29N 52°25' E 004°46'0 0.0
2017-Sep-05 18:38N 52°25' E 004°46'0 0.0
2017-Sep-05 18:29N 52°25' E 004°46'0 0.0
2017-Sep-05 17:59N 52°25' E 004°46'0 0.0
2017-Sep-05 17:29N 52°25' E 004°46'0 0.0
2017-Sep-05 16:56N 52°25' E 004°46'0 0.0
2017-Sep-05 16:29N 52°25' E 004°46'0 0.0
2017-Sep-05 15:56N 52°25' E 004°46'0 0.0
2017-Sep-05 15:29N 52°25' E 004°46'0 0.0
2017-Sep-05 14:59N 52°25' E 004°46'0 0.0
2017-Sep-05 14:26N 52°25' E 004°46'0 0.0
2017-Sep-05 13:59N 52°25' E 004°46'0 0.0
2017-Sep-05 13:29N 52°25' E 004°46'0 0.0
2017-Sep-05 12:53N 52°25' E 004°46'0 0.0
2017-Sep-05 12:29N 52°25' E 004°46'0 0.0
2017-Sep-05 11:59N 52°25' E 004°46'0 0.0
2017-Sep-05 11:26N 52°25' E 004°46'0 0.0
2017-Sep-05 10:56N 52°25' E 004°46'0 0.0
2017-Sep-05 10:17N 52°25' E 004°46'0 0.0
2017-Sep-05 09:56N 52°25' E 004°46'0 0.0
2017-Sep-05 09:26N 52°25' E 004°46'0 0.0
2017-Sep-05 08:56N 52°25' E 004°46'0 0.0
2017-Sep-05 08:29N 52°25' E 004°46'0 0.0
2017-Sep-05 07:44N 52°25' E 004°46'0 0.0
2017-Sep-05 07:20N 52°25' E 004°46'0 0.0
2017-Sep-05 06:59N 52°25' E 004°46'0 0.0
2017-Sep-05 06:29N 52°25' E 004°46'0 0.0
2017-Sep-05 05:59N 52°25' E 004°46'0 0.0
2017-Sep-05 05:26N 52°25' E 004°46'0 0.0
2017-Sep-05 04:56N 52°25' E 004°46'0 0.0
2017-Sep-05 04:29N 52°25' E 004°46'0 0.0
2017-Sep-05 03:59N 52°25' E 004°46'0 0.0
2017-Sep-05 03:29N 52°25' E 004°46'0 0.0
2017-Sep-05 02:59N 52°25' E 004°46'0 0.0
2017-Sep-05 02:29N 52°25' E 004°46'0 0.0
2017-Sep-05 01:59N 52°25' E 004°46'0 0.0
2017-Sep-05 01:29N 52°25' E 004°46'0 0.0
2017-Sep-05 00:59N 52°25' E 004°46'0 0.0
2017-Sep-05 00:29N 52°25' E 004°46'0 0.0
2017-Sep-04 23:59N 52°25' E 004°46'0 0.0
2017-Sep-04 23:17N 52°25' E 004°46'0 0.0
2017-Sep-04 22:59N 52°25' E 004°46'0 0.0
2017-Sep-04 22:29N 52°25' E 004°46'0 0.0
2017-Sep-04 21:59N 52°25' E 004°46'0 0.0
2017-Sep-04 21:23N 52°25' E 004°46'0 0.0
2017-Sep-04 20:59N 52°25' E 004°46'0 0.0
2017-Sep-04 20:29N 52°25' E 004°46'0 0.0
2017-Sep-04 19:47N 52°25' E 004°46'0 0.0
2017-Sep-04 19:23N 52°25' E 004°46'0 0.0
2017-Sep-04 18:59N 52°25' E 004°46'0 0.0
2017-Sep-04 18:29N 52°25' E 004°46'0 0.0
2017-Sep-04 17:56N 52°25' E 004°46'0 0.0
2017-Sep-04 17:29N 52°25' E 004°46'0 0.0
2017-Sep-04 16:59N 52°25' E 004°46'0 0.0
2017-Sep-04 16:30N 52°25' E 004°46'0 0.0
2017-Sep-04 16:00N 52°25' E 004°46'0 0.5
2017-Sep-04 15:30N 52°25' E 004°46'1 1.0
2017-Sep-04 14:58N 52°25' E 004°46'0 0.0
2017-Sep-04 14:30N 52°25' E 004°46'0 0.0
2017-Sep-04 14:00N 52°25' E 004°46'0 0.0
2017-Sep-04 13:30N 52°25' E 004°46'0 0.0
2017-Sep-04 13:00N 52°25' E 004°46'0 0.0
2017-Sep-04 12:30N 52°25' E 004°46'0 0.0
2017-Sep-04 12:01N 52°25' E 004°46'0 0.0
2017-Sep-04 11:31N 52°25' E 004°46'0 0.0
2017-Sep-04 11:01N 52°25' E 004°46'0 0.0
2017-Sep-04 10:31N 52°25' E 004°46'0 0.0
2017-Sep-04 10:00N 52°25' E 004°46'0 0.0
2017-Sep-04 09:30N 52°25' E 004°46'0 0.0
2017-Sep-04 09:01N 52°25' E 004°46'0 0.0
2017-Sep-04 08:31N 52°25' E 004°46'0 0.0
2017-Sep-04 08:01N 52°25' E 004°46'0 0.0
2017-Sep-04 07:31N 52°25' E 004°46'0 0.0
2017-Sep-04 07:01N 52°25' E 004°46'0 0.0
2017-Sep-04 06:31N 52°25' E 004°46'0 0.0
2017-Sep-04 06:01N 52°25' E 004°46'0 0.0
2017-Sep-04 05:31N 52°25' E 004°46'0 0.0
2017-Sep-04 05:01N 52°25' E 004°46'0 0.0
2017-Sep-04 04:30N 52°25' E 004°46'0 0.0
2017-Sep-04 04:00N 52°25' E 004°46'0 0.0
2017-Sep-04 03:31N 52°25' E 004°46'0 0.0
2017-Sep-04 03:00N 52°25' E 004°46'0 0.0
2017-Sep-04 02:31N 52°25' E 004°46'0 0.0
2017-Sep-04 02:00N 52°25' E 004°46'0 0.0
2017-Sep-04 01:30N 52°25' E 004°46'0 0.0
2017-Sep-04 01:01N 52°25' E 004°46'0 0.0
2017-Sep-04 00:31N 52°25' E 004°46'0 0.0
2017-Sep-04 00:01N 52°25' E 004°46'0 0.0
2017-Sep-03 23:30N 52°25' E 004°46'0 0.0
2017-Sep-03 23:00N 52°25' E 004°46'0 0.0
2017-Sep-03 22:30N 52°25' E 004°46'0 0.0
2017-Sep-03 22:01N 52°25' E 004°46'0 0.0
2017-Sep-03 21:30N 52°25' E 004°46'0 0.0
2017-Sep-03 21:00N 52°25' E 004°46'0 0.0
2017-Sep-03 20:31N 52°25' E 004°46'0 0.0
2017-Sep-03 20:01N 52°25' E 004°46'0 0.0
2017-Sep-03 19:30N 52°25' E 004°46'0 0.0
2017-Sep-03 19:01N 52°25' E 004°46'0 0.0
2017-Sep-03 18:30N 52°25' E 004°46'0 0.0
2017-Sep-03 18:00N 52°25' E 004°46'0 0.0
2017-Sep-03 17:30N 52°25' E 004°46'0 0.0
2017-Sep-03 17:01N 52°25' E 004°46'0 0.0
2017-Sep-03 16:31N 52°25' E 004°46'0 0.0
2017-Sep-03 16:01N 52°25' E 004°46'0 0.0
2017-Sep-03 15:31N 52°25' E 004°46'0 0.0
2017-Sep-03 15:00N 52°25' E 004°46'0 0.0
2017-Sep-03 14:01N 52°25' E 004°46'0 0.0
2017-Sep-03 13:30N 52°25' E 004°46'0 0.0
2017-Sep-03 13:01N 52°25' E 004°46'0 0.0
2017-Sep-03 12:30N 52°25' E 004°46'0 0.0
2017-Sep-03 12:01N 52°25' E 004°46'0 0.0
2017-Sep-03 11:30N 52°25' E 004°46'0 0.0
2017-Sep-03 11:01N 52°25' E 004°46'0 0.0
2017-Sep-03 10:30N 52°25' E 004°46'0 0.0
2017-Sep-03 10:01N 52°25' E 004°46'0 0.0
2017-Sep-03 09:31N 52°25' E 004°46'0 0.0
2017-Sep-03 09:00N 52°25' E 004°46'0 0.0
2017-Sep-03 08:31N 52°25' E 004°46'0 0.0
2017-Sep-03 08:01N 52°25' E 004°46'0 0.0
2017-Sep-03 07:30N 52°25' E 004°46'0 0.0
2017-Sep-03 07:00N 52°25' E 004°46'0 0.0
2017-Sep-03 06:31N 52°25' E 004°46'0 0.0
2017-Sep-03 06:00N 52°25' E 004°46'0 0.0
2017-Sep-03 05:30N 52°25' E 004°46'0 0.0
2017-Sep-03 05:01N 52°25' E 004°46'0 0.0
2017-Sep-03 04:31N 52°25' E 004°46'0 0.0
2017-Sep-03 04:00N 52°25' E 004°46'0 0.0
2017-Sep-03 03:31N 52°25' E 004°46'0 0.0
2017-Sep-03 03:00N 52°25' E 004°46'0 0.0
2017-Sep-03 02:30N 52°25' E 004°46'0 0.1
2017-Sep-03 02:01N 52°25' E 004°46'1 1.8
2017-Sep-03 01:29N 52°25' E 004°45'0 0.0
2017-Sep-03 00:59N 52°25' E 004°45'0 0.0
2017-Sep-03 00:20N 52°25' E 004°45'0 0.0
2017-Sep-02 23:59N 52°25' E 004°45'0 0.0
2017-Sep-02 23:20N 52°25' E 004°45'0 0.0
2017-Sep-02 22:59N 52°25' E 004°45'0 0.0
2017-Sep-02 22:26N 52°25' E 004°45'0 0.0
2017-Sep-02 21:56N 52°25' E 004°45'0 0.0
2017-Sep-02 21:26N 52°25' E 004°45'0 0.0
2017-Sep-02 20:59N 52°25' E 004°45'0 0.0
2017-Sep-02 20:29N 52°25' E 004°45'0 0.0
2017-Sep-02 19:59N 52°25' E 004°45'0 0.0
2017-Sep-02 19:29N 52°25' E 004°45'0 0.0
2017-Sep-02 18:59N 52°25' E 004°45'0 0.0
2017-Sep-02 18:29N 52°25' E 004°45'0 0.0
2017-Sep-02 17:56N 52°25' E 004°45'0 0.0
2017-Sep-02 17:29N 52°25' E 004°45'0 0.0
2017-Sep-02 16:59N 52°25' E 004°45'0 0.0
2017-Sep-02 16:20N 52°25' E 004°45'0 0.0
2017-Sep-02 15:59N 52°25' E 004°45'0 0.0
2017-Sep-02 15:29N 52°25' E 004°45'0 0.0
2017-Sep-02 14:59N 52°25' E 004°45'0 0.0
2017-Sep-02 14:26N 52°25' E 004°45'0 0.0
2017-Sep-02 13:53N 52°25' E 004°45'0 0.0
2017-Sep-02 13:29N 52°25' E 004°45'0 0.0
2017-Sep-02 12:53N 52°25' E 004°45'0 0.0
2017-Sep-02 12:29N 52°25' E 004°45'0 0.0
2017-Sep-02 11:59N 52°25' E 004°45'0 0.0
2017-Sep-02 11:29N 52°25' E 004°45'0 0.0
2017-Sep-02 10:56N 52°25' E 004°45'0 0.0
2017-Sep-02 10:29N 52°25' E 004°45'0 0.0
2017-Sep-02 09:59N 52°25' E 004°45'0 0.0
2017-Sep-02 09:29N 52°25' E 004°45'0 0.0
2017-Sep-02 08:59N 52°25' E 004°45'0 0.0
2017-Sep-02 08:23N 52°25' E 004°45'0 0.0
2017-Sep-02 07:59N 52°25' E 004°45'0 0.0
2017-Sep-02 06:56N 52°25' E 004°45'0 0.0
2017-Sep-02 06:26N 52°25' E 004°45'0 0.0
2017-Sep-02 05:59N 52°25' E 004°45'0 0.0
2017-Sep-02 05:29N 52°25' E 004°45'0 0.0
2017-Sep-02 04:59N 52°25' E 004°45'0 0.0
2017-Sep-02 04:29N 52°25' E 004°45'0 0.0
2017-Sep-02 03:53N 52°25' E 004°45'0 0.0
2017-Sep-02 03:26N 52°25' E 004°45'0 0.0
2017-Sep-02 02:59N 52°25' E 004°45'0 0.0
2017-Sep-02 02:11N 52°25' E 004°45'0 0.0
2017-Sep-02 01:59N 52°25' E 004°45'0 0.0
2017-Sep-02 01:20N 52°25' E 004°45'0 0.0
2017-Sep-02 00:50N 52°25' E 004°45'0 0.0
2017-Sep-02 00:26N 52°25' E 004°45'0 0.0
2017-Sep-01 23:56N 52°25' E 004°45'0 0.0
2017-Sep-01 23:29N 52°25' E 004°45'0 0.0
2017-Sep-01 22:53N 52°25' E 004°45'0 0.0
2017-Sep-01 22:29N 52°25' E 004°45'0 0.0
2017-Sep-01 21:56N 52°25' E 004°45'0 0.0
2017-Sep-01 21:29N 52°25' E 004°45'0 0.0
2017-Sep-01 20:47N 52°25' E 004°45'0 0.0
2017-Sep-01 20:23N 52°25' E 004°45'0 0.0
2017-Sep-01 19:56N 52°25' E 004°45'0 0.0
2017-Sep-01 19:29N 52°25' E 004°45'0 0.0
2017-Sep-01 18:56N 52°25' E 004°45'0 0.0
2017-Sep-01 18:23N 52°25' E 004°45'0 0.0
2017-Sep-01 16:56N 52°25' E 004°45'0 0.0
2017-Sep-01 16:29N 52°25' E 004°45'0 0.0
2017-Sep-01 15:59N 52°25' E 004°45'0 0.0
2017-Sep-01 15:29N 52°25' E 004°45'0 0.0
2017-Sep-01 14:59N 52°25' E 004°45'0 0.0
2017-Sep-01 14:29N 52°25' E 004°45'0 0.0
2017-Sep-01 13:50N 52°25' E 004°45'0 0.0
2017-Sep-01 13:31N 52°25' E 004°45'1 1.7
2017-Sep-01 13:00N 52°26' E 004°45'4 7.4
2017-Sep-01 12:30N 52°28' E 004°40'2 4.0
2017-Sep-01 12:00N 52°28' E 004°36'1 1.8
2017-Sep-01 11:30N 52°28' E 004°35'5 9.8
2017-Sep-01 11:00N 52°29' E 004°27'3 5.9
2017-Sep-01 10:30N 52°29' E 004°22'4 8.5
2017-Sep-01 10:00N 52°29' E 004°15'7 6.7
2017-Sep-01 08:55N 52°27' E 004°04'0 0.1
2017-Sep-01 08:25N 52°27' E 004°04'0 0.0
2017-Sep-01 07:58N 52°27' E 004°04'0 0.1
2017-Sep-01 07:25N 52°27' E 004°04'0 0.0
2017-Sep-01 06:58N 52°27' E 004°04'0 0.0
2017-Sep-01 06:28N 52°27' E 004°04'0 0.0
2017-Sep-01 05:58N 52°27' E 004°04'0 0.0
2017-Sep-01 05:25N 52°27' E 004°04'0 0.0
2017-Sep-01 04:58N 52°27' E 004°04'0 0.1
2017-Sep-01 04:28N 52°27' E 004°04'0 0.3
2017-Sep-01 03:58N 52°27' E 004°04'0 0.1
2017-Sep-01 03:28N 52°27' E 004°04'0 0.1
2017-Sep-01 02:58N 52°27' E 004°04'0 0.1
2017-Sep-01 02:28N 52°27' E 004°04'0 0.1
2017-Sep-01 01:58N 52°27' E 004°04'0 0.0
2017-Sep-01 01:28N 52°27' E 004°04'0 0.0
2017-Sep-01 00:58N 52°27' E 004°04'0 0.0
2017-Sep-01 00:28N 52°27' E 004°04'0 0.0
2017-Aug-31 23:58N 52°27' E 004°04'0 0.0
2017-Aug-31 23:25N 52°27' E 004°04'0 0.1
2017-Aug-31 22:58N 52°27' E 004°04'0 0.0
2017-Aug-31 22:28N 52°27' E 004°04'0 0.0
2017-Aug-31 21:58N 52°27' E 004°04'0 0.1
2017-Aug-31 21:10N 52°27' E 004°04'0 0.0
2017-Aug-31 20:52N 52°27' E 004°04'0 0.1
2017-Aug-31 20:28N 52°27' E 004°04'0 0.2
2017-Aug-31 19:58N 52°27' E 004°04'0 0.1
2017-Aug-31 19:28N 52°27' E 004°04'0 0.0
2017-Aug-31 18:58N 52°27' E 004°04'0 0.1
2017-Aug-31 18:28N 52°27' E 004°04'0 0.1
2017-Aug-31 17:58N 52°27' E 004°04'0 0.0
2017-Aug-31 16:58N 52°27' E 004°04'0 0.0
2017-Aug-31 16:07N 52°27' E 004°04'0 0.1
2017-Aug-31 15:43N 52°27' E 004°04'0 0.0
2017-Aug-31 15:25N 52°27' E 004°04'0 0.1
2017-Aug-31 14:55N 52°27' E 004°04'0 0.1
2017-Aug-31 14:16N 52°27' E 004°04'0 0.0
2017-Aug-31 13:58N 52°27' E 004°04'0 0.0
2017-Aug-31 13:16N 52°27' E 004°04'0 0.0
2017-Aug-31 12:34N 52°27' E 004°04'0 0.1
2017-Aug-31 12:22N 52°27' E 004°04'0 0.0
2017-Aug-31 11:58N 52°27' E 004°04'0 0.0
2017-Aug-31 11:25N 52°27' E 004°04'0 0.0
2017-Aug-31 10:43N 52°27' E 004°04'0 0.0
2017-Aug-31 10:28N 52°27' E 004°04'0 0.0
2017-Aug-31 09:58N 52°27' E 004°04'0 0.1
2017-Aug-31 09:22N 52°27' E 004°04'0 0.0
2017-Aug-31 08:52N 52°27' E 004°04'0 0.0
2017-Aug-31 08:25N 52°27' E 004°04'0 0.1
2017-Aug-31 07:52N 52°27' E 004°04'0 0.0
2017-Aug-31 07:25N 52°27' E 004°04'0 0.0
2017-Aug-31 06:46N 52°27' E 004°04'0 0.1
2017-Aug-31 06:22N 52°27' E 004°04'0 0.0
2017-Aug-31 05:49N 52°27' E 004°04'0 0.0
2017-Aug-31 05:28N 52°27' E 004°04'0 0.0
2017-Aug-31 04:55N 52°27' E 004°04'0 0.0
2017-Aug-31 04:28N 52°27' E 004°04'0 0.0
2017-Aug-31 03:58N 52°27' E 004°04'0 0.0
2017-Aug-31 03:19N 52°27' E 004°04'0 0.0
2017-Aug-31 02:58N 52°27' E 004°04'0 0.0
2017-Aug-31 02:25N 52°27' E 004°04'0 0.1
2017-Aug-31 01:52N 52°27' E 004°04'0 0.0
2017-Aug-31 01:16N 52°27' E 004°04'0 0.0
2017-Aug-31 00:58N 52°27' E 004°04'0 0.0
2017-Aug-31 00:28N 52°27' E 004°04'0 0.1
2017-Aug-30 23:49N 52°27' E 004°04'0 0.0
2017-Aug-30 23:25N 52°27' E 004°04'0 0.1
2017-Aug-30 22:52N 52°27' E 004°04'0 0.0
2017-Aug-30 22:28N 52°27' E 004°04'0 0.0
2017-Aug-30 21:52N 52°27' E 004°04'0 0.0
2017-Aug-30 21:19N 52°27' E 004°04'0 0.0
2017-Aug-30 20:43N 52°27' E 004°04'0 0.2
2017-Aug-30 20:25N 52°27' E 004°04'0 0.0
2017-Aug-30 19:58N 52°27' E 004°04'0 0.0
2017-Aug-30 19:25N 52°27' E 004°04'0 0.0
2017-Aug-30 17:58N 52°27' E 004°04'0 0.0
2017-Aug-30 17:25N 52°27' E 004°04'0 0.1
2017-Aug-30 16:58N 52°27' E 004°04'  
Track history (hours):
 
Tides and Currents Weather Stations Pressure Air Temp Water Temp Dewpoint Dewpoint Depression Visibility Wind Speed Wind Dir Waves Ship Positions

Navigare Pars

Last reported at 2017-Sep-09 16:23 UTC. Time now 2017-Sep-21 18:00 UTC.
Position N 49°45' W 004°09'.
Warning: this ship's position is 12 days out of date.

Length 183 m; draft 11 m.

Type: Ship. MMSI: 219006000.

Date/timePositionNaut miles runAvg speedWind from/ knotsBaromVisibWave heightAir tempDewpointWater temp
2017-Sep-09 16:23N 49°45' W 004°09'612.7
2017-Sep-09 15:54N 49°47' W 004°00'513.3
2017-Sep-09 15:30N 49°48' W 003°53'713.6
2017-Sep-09 15:01N 49°51' W 003°43'714.1
2017-Sep-09 14:31N 49°53' W 003°32'714.3
2017-Sep-09 14:01N 49°55' W 003°22'714.0
2017-Sep-09 13:30N 49°58' W 003°12'713.2
2017-Sep-09 13:00N 49°59' W 003°02'612.9
2017-Sep-09 12:30N 50°01' W 002°52'612.3
2017-Sep-09 12:00N 50°03' W 002°43'2410.2
2017-Sep-09 09:39N 50°09' W 002°07'2 8.9
2017-Sep-09 09:25N 50°09' W 002°04'4 8.9
2017-Sep-09 08:59N 50°10' W 001°58'4 9.1
2017-Sep-09 08:30N 50°12' W 001°52'5 9.8
2017-Sep-09 08:00N 50°13' W 001°44'610.8
2017-Sep-09 07:29N 50°14' W 001°36'611.7
2017-Sep-09 07:00N 50°16' W 001°27'612.9
2017-Sep-09 06:30N 50°18' W 001°18'3515.1
2017-Sep-09 04:10N 50°27' W 000°24'215.0
2017-Sep-09 04:00N 50°27' W 000°20'714.7
2017-Sep-09 03:30N 50°30' W 000°09'714.3
2017-Sep-09 03:00N 50°32' E 000°01'714.0
2017-Sep-09 02:30N 50°34' E 000°12'713.4
2017-Sep-09 02:00N 50°35' E 000°22'613.0
2017-Sep-09 01:31N 50°37' E 000°32'612.3
2017-Sep-09 01:01N 50°39' E 000°41'612.0
2017-Sep-09 00:31N 50°43' E 000°48'611.5
2017-Sep-09 00:00N 50°47' E 000°56'611.4
2017-Sep-08 23:31N 50°50' E 001°02'611.6
2017-Sep-08 22:59N 50°55' E 001°09'612.3
2017-Sep-08 22:30N 50°59' E 001°16'713.4
2017-Sep-08 22:00N 51°03' E 001°24'715.0
2017-Sep-08 21:31N 51°07' E 001°34'815.4
2017-Sep-08 21:01N 51°12' E 001°43'714.9
2017-Sep-08 20:30N 51°19' E 001°50'714.2
2017-Sep-08 20:00N 51°25' E 001°55'713.3
2017-Sep-08 19:30N 51°30' E 002°02'712.6
2017-Sep-08 18:59N 51°34' E 002°09'8511.2
2017-Sep-08 11:23N 52°32' E 003°50'512.0
2017-Sep-08 11:00N 52°32' E 003°58'612.2
2017-Sep-08 10:30N 52°31' E 004°08'611.9
2017-Sep-08 10:00N 52°30' E 004°17'611.1
2017-Sep-08 09:30N 52°29' E 004°26'5 9.3
2017-Sep-08 09:01N 52°28' E 004°34'2 3.4
2017-Sep-08 08:30N 52°28' E 004°37'0 0.2
2017-Sep-08 08:00N 52°28' E 004°37'1 2.0
2017-Sep-08 07:30N 52°28' E 004°38'2 4.6
2017-Sep-08 07:00N 52°27' E 004°42'3 6.7
2017-Sep-08 06:30N 52°25' E 004°46'1 0.9
2017-Sep-08 05:56N 52°25' E 004°46'0 0.0
2017-Sep-08 05:26N 52°25' E 004°46'0 0.0
2017-Sep-08 04:59N 52°25' E 004°46'0 0.0
2017-Sep-08 04:23N 52°25' E 004°46'0 0.0
2017-Sep-08 03:56N 52°25' E 004°46'0 0.0
2017-Sep-08 03:29N 52°25' E 004°46'0 0.0
2017-Sep-08 02:59N 52°25' E 004°46'0 0.0
2017-Sep-08 02:26N 52°25' E 004°46'0 0.0
2017-Sep-08 01:59N 52°25' E 004°46'0 0.0
2017-Sep-08 01:29N 52°25' E 004°46'0 0.0
2017-Sep-08 00:47N 52°25' E 004°46'0 0.0
2017-Sep-08 00:26N 52°25' E 004°46'0 0.0
2017-Sep-07 23:56N 52°25' E 004°46'0 0.0
2017-Sep-07 23:29N 52°25' E 004°46'0 0.0
2017-Sep-07 22:59N 52°25' E 004°46'0 0.0
2017-Sep-07 22:29N 52°25' E 004°46'0 0.0
2017-Sep-07 21:59N 52°25' E 004°46'0 0.0
2017-Sep-07 21:26N 52°25' E 004°46'0 0.0
2017-Sep-07 20:59N 52°25' E 004°46'0 0.0
2017-Sep-07 20:29N 52°25' E 004°46'0 0.0
2017-Sep-07 19:53N 52°25' E 004°46'0 0.0
2017-Sep-07 19:26N 52°25' E 004°46'0 0.0
2017-Sep-07 18:47N 52°25' E 004°46'0 0.0
2017-Sep-07 18:20N 52°25' E 004°46'0 0.0
2017-Sep-07 17:59N 52°25' E 004°46'0 0.0
2017-Sep-07 17:17N 52°25' E 004°46'0 0.0
2017-Sep-07 16:59N 52°25' E 004°46'0 0.0
2017-Sep-07 16:29N 52°25' E 004°46'0 0.0
2017-Sep-07 15:56N 52°25' E 004°46'0 0.0
2017-Sep-07 15:29N 52°25' E 004°46'0 0.0
2017-Sep-07 14:44N 52°25' E 004°46'0 0.0
2017-Sep-07 14:23N 52°25' E 004°46'0 0.0
2017-Sep-07 13:53N 52°25' E 004°46'0 0.0
2017-Sep-07 13:29N 52°25' E 004°46'0 0.0
2017-Sep-07 12:59N 52°25' E 004°46'0 0.0
2017-Sep-07 12:26N 52°25' E 004°46'0 0.0
2017-Sep-07 11:59N 52°25' E 004°46'0 0.0
2017-Sep-07 11:17N 52°25' E 004°46'0 0.0
2017-Sep-07 10:53N 52°25' E 004°46'0 0.0
2017-Sep-07 10:29N 52°25' E 004°46'0 0.0
2017-Sep-07 09:44N 52°25' E 004°46'0 0.0
2017-Sep-07 09:05N 52°25' E 004°46'0 0.0
2017-Sep-07 08:47N 52°25' E 004°46'0 0.0
2017-Sep-07 08:23N 52°25' E 004°46'0 0.0
2017-Sep-07 07:59N 52°25' E 004°46'0 0.0
2017-Sep-07 07:17N 52°25' E 004°46'0 0.0
2017-Sep-07 06:53N 52°25' E 004°46'0 0.0
2017-Sep-07 06:20N 52°25' E 004°46'0 0.0
2017-Sep-07 05:59N 52°25' E 004°46'0 0.0
2017-Sep-07 05:29N 52°25' E 004°46'0 0.0
2017-Sep-07 04:26N 52°25' E 004°46'0 0.0
2017-Sep-07 03:59N 52°25' E 004°46'0 0.0
2017-Sep-07 03:29N 52°25' E 004°46'0 0.0
2017-Sep-07 02:56N 52°25' E 004°46'0 0.0
2017-Sep-07 02:26N 52°25' E 004°46'0 0.0
2017-Sep-07 01:50N 52°25' E 004°46'0 0.0
2017-Sep-07 01:29N 52°25' E 004°46'0 0.0
2017-Sep-07 00:59N 52°25' E 004°46'0 0.0
2017-Sep-07 00:29N 52°25' E 004°46'0 0.0
2017-Sep-06 23:50N 52°25' E 004°46'0 0.0
2017-Sep-06 23:26N 52°25' E 004°46'0 0.0
2017-Sep-06 22:59N 52°25' E 004°46'0 0.0
2017-Sep-06 22:29N 52°25' E 004°46'0 0.0
2017-Sep-06 21:56N 52°25' E 004°46'0 0.0
2017-Sep-06 21:29N 52°25' E 004°46'0 0.0
2017-Sep-06 20:59N 52°25' E 004°46'0 0.0
2017-Sep-06 20:29N 52°25' E 004°46'0 0.0
2017-Sep-06 19:56N 52°25' E 004°46'0 0.0
2017-Sep-06 19:26N 52°25' E 004°46'0 0.0
2017-Sep-06 18:59N 52°25' E 004°46'0 0.0
2017-Sep-06 18:29N 52°25' E 004°46'0 0.0
2017-Sep-06 17:56N 52°25' E 004°46'0 0.0
2017-Sep-06 17:26N 52°25' E 004°46'0 0.0
2017-Sep-06 16:59N 52°25' E 004°46'0 0.0
2017-Sep-06 16:26N 52°25' E 004°46'0 0.0
2017-Sep-06 15:56N 52°25' E 004°46'0 0.0
2017-Sep-06 15:26N 52°25' E 004°46'0 0.0
2017-Sep-06 14:56N 52°25' E 004°46'0 0.0
2017-Sep-06 14:23N 52°25' E 004°46'0 0.0
2017-Sep-06 13:59N 52°25' E 004°46'0 0.0
2017-Sep-06 13:26N 52°25' E 004°46'0 0.0
2017-Sep-06 12:59N 52°25' E 004°46'0 0.0
2017-Sep-06 12:29N 52°25' E 004°46'0 0.0
2017-Sep-06 11:59N 52°25' E 004°46'0 0.0
2017-Sep-06 11:11N 52°25' E 004°46'0 0.0
2017-Sep-06 10:59N 52°25' E 004°46'0 0.0
2017-Sep-06 10:29N 52°25' E 004°46'0 0.0
2017-Sep-06 09:41N 52°25' E 004°46'0 0.0
2017-Sep-06 09:29N 52°25' E 004°46'0 0.0
2017-Sep-06 08:59N 52°25' E 004°46'0 0.0
2017-Sep-06 08:20N 52°25' E 004°46'0 0.0
2017-Sep-06 07:56N 52°25' E 004°46'0 0.0
2017-Sep-06 07:26N 52°25' E 004°46'0 0.0
2017-Sep-06 06:50N 52°25' E 004°46'0 0.0
2017-Sep-06 06:29N 52°25' E 004°46'0 0.0
2017-Sep-06 05:59N 52°25' E 004°46'0 0.0
2017-Sep-06 05:26N 52°25' E 004°46'0 0.0
2017-Sep-06 04:59N 52°25' E 004°46'0 0.0
2017-Sep-06 04:29N 52°25' E 004°46'0 0.0
2017-Sep-06 03:47N 52°25' E 004°46'0 0.0
2017-Sep-06 03:23N 52°25' E 004°46'0 0.0
2017-Sep-06 02:59N 52°25' E 004°46'0 0.0
2017-Sep-06 02:29N 52°25' E 004°46'0 0.0
2017-Sep-06 01:56N 52°25' E 004°46'0 0.0
2017-Sep-06 01:29N 52°25' E 004°46'0 0.0
2017-Sep-06 00:59N 52°25' E 004°46'0 0.0
2017-Sep-06 00:29N 52°25' E 004°46'0 0.0
2017-Sep-05 23:59N 52°25' E 004°46'0 0.0
2017-Sep-05 23:26N 52°25' E 004°46'0 0.0
2017-Sep-05 22:59N 52°25' E 004°46'0 0.0
2017-Sep-05 22:29N 52°25' E 004°46'0 0.0
2017-Sep-05 21:50N 52°25' E 004°46'0 0.0
2017-Sep-05 21:29N 52°25' E 004°46'0 0.0
2017-Sep-05 20:59N 52°25' E 004°46'0 0.0
2017-Sep-05 20:29N 52°25' E 004°46'0 0.0
2017-Sep-05 19:56N 52°25' E 004°46'0 0.0
2017-Sep-05 19:29N 52°25' E 004°46'0 0.0
2017-Sep-05 18:38N 52°25' E 004°46'0 0.0
2017-Sep-05 18:29N 52°25' E 004°46'0 0.0
2017-Sep-05 17:59N 52°25' E 004°46'0 0.0
2017-Sep-05 17:29N 52°25' E 004°46'0 0.0
2017-Sep-05 16:56N 52°25' E 004°46'0 0.0
2017-Sep-05 16:29N 52°25' E 004°46'0 0.0
2017-Sep-05 15:56N 52°25' E 004°46'0 0.0
2017-Sep-05 15:29N 52°25' E 004°46'0 0.0
2017-Sep-05 14:59N 52°25' E 004°46'0 0.0
2017-Sep-05 14:26N 52°25' E 004°46'0 0.0
2017-Sep-05 13:59N 52°25' E 004°46'0 0.0
2017-Sep-05 13:29N 52°25' E 004°46'0 0.0
2017-Sep-05 12:53N 52°25' E 004°46'0 0.0
2017-Sep-05 12:29N 52°25' E 004°46'0 0.0
2017-Sep-05 11:59N 52°25' E 004°46'0 0.0
2017-Sep-05 11:26N 52°25' E 004°46'0 0.0
2017-Sep-05 10:56N 52°25' E 004°46'0 0.0
2017-Sep-05 10:17N 52°25' E 004°46'0 0.0
2017-Sep-05 09:56N 52°25' E 004°46'0 0.0
2017-Sep-05 09:26N 52°25' E 004°46'0 0.0
2017-Sep-05 08:56N 52°25' E 004°46'0 0.0
2017-Sep-05 08:29N 52°25' E 004°46'0 0.0
2017-Sep-05 07:44N 52°25' E 004°46'0 0.0
2017-Sep-05 07:20N 52°25' E 004°46'0 0.0
2017-Sep-05 06:59N 52°25' E 004°46'0 0.0
2017-Sep-05 06:29N 52°25' E 004°46'0 0.0
2017-Sep-05 05:59N 52°25' E 004°46'0 0.0
2017-Sep-05 05:26N 52°25' E 004°46'0 0.0
2017-Sep-05 04:56N 52°25' E 004°46'0 0.0
2017-Sep-05 04:29N 52°25' E 004°46'0 0.0
2017-Sep-05 03:59N 52°25' E 004°46'0 0.0
2017-Sep-05 03:29N 52°25' E 004°46'0 0.0
2017-Sep-05 02:59N 52°25' E 004°46'0 0.0
2017-Sep-05 02:29N 52°25' E 004°46'0 0.0
2017-Sep-05 01:59N 52°25' E 004°46'0 0.0
2017-Sep-05 01:29N 52°25' E 004°46'0 0.0
2017-Sep-05 00:59N 52°25' E 004°46'0 0.0
2017-Sep-05 00:29N 52°25' E 004°46'0 0.0
2017-Sep-04 23:59N 52°25' E 004°46'0 0.0
2017-Sep-04 23:17N 52°25' E 004°46'0 0.0
2017-Sep-04 22:59N 52°25' E 004°46'0 0.0
2017-Sep-04 22:29N 52°25' E 004°46'0 0.0
2017-Sep-04 21:59N 52°25' E 004°46'0 0.0
2017-Sep-04 21:23N 52°25' E 004°46'0 0.0
2017-Sep-04 20:59N 52°25' E 004°46'0 0.0
2017-Sep-04 20:29N 52°25' E 004°46'0 0.0
2017-Sep-04 19:47N 52°25' E 004°46'0 0.0
2017-Sep-04 19:23N 52°25' E 004°46'0 0.0
2017-Sep-04 18:59N 52°25' E 004°46'0 0.0
2017-Sep-04 18:29N 52°25' E 004°46'0 0.0
2017-Sep-04 17:56N 52°25' E 004°46'0 0.0
2017-Sep-04 17:29N 52°25' E 004°46'0 0.0
2017-Sep-04 16:59N 52°25' E 004°46'0 0.0
2017-Sep-04 16:30N 52°25' E 004°46'0 0.0
2017-Sep-04 16:00N 52°25' E 004°46'0 0.5
2017-Sep-04 15:30N 52°25' E 004°46'1 1.0
2017-Sep-04 14:58N 52°25' E 004°46'0 0.0
2017-Sep-04 14:30N 52°25' E 004°46'0 0.0
2017-Sep-04 14:00N 52°25' E 004°46'0 0.0
2017-Sep-04 13:30N 52°25' E 004°46'0 0.0
2017-Sep-04 13:00N 52°25' E 004°46'0 0.0
2017-Sep-04 12:30N 52°25' E 004°46'0 0.0
2017-Sep-04 12:01N 52°25' E 004°46'0 0.0
2017-Sep-04 11:31N 52°25' E 004°46'0 0.0
2017-Sep-04 11:01N 52°25' E 004°46'0 0.0
2017-Sep-04 10:31N 52°25' E 004°46'0 0.0
2017-Sep-04 10:00N 52°25' E 004°46'0 0.0
2017-Sep-04 09:30N 52°25' E 004°46'0 0.0
2017-Sep-04 09:01N 52°25' E 004°46'0 0.0
2017-Sep-04 08:31N 52°25' E 004°46'0 0.0
2017-Sep-04 08:01N 52°25' E 004°46'0 0.0
2017-Sep-04 07:31N 52°25' E 004°46'0 0.0
2017-Sep-04 07:01N 52°25' E 004°46'0 0.0
2017-Sep-04 06:31N 52°25' E 004°46'0 0.0
2017-Sep-04 06:01N 52°25' E 004°46'0 0.0
2017-Sep-04 05:31N 52°25' E 004°46'0 0.0
2017-Sep-04 05:01N 52°25' E 004°46'0 0.0
2017-Sep-04 04:30N 52°25' E 004°46'0 0.0
2017-Sep-04 04:00N 52°25' E 004°46'0 0.0
2017-Sep-04 03:31N 52°25' E 004°46'0 0.0
2017-Sep-04 03:00N 52°25' E 004°46'0 0.0
2017-Sep-04 02:31N 52°25' E 004°46'0 0.0
2017-Sep-04 02:00N 52°25' E 004°46'0 0.0
2017-Sep-04 01:30N 52°25' E 004°46'0 0.0
2017-Sep-04 01:01N 52°25' E 004°46'0 0.0
2017-Sep-04 00:31N 52°25' E 004°46'0 0.0
2017-Sep-04 00:01N 52°25' E 004°46'0 0.0
2017-Sep-03 23:30N 52°25' E 004°46'0 0.0
2017-Sep-03 23:00N 52°25' E 004°46'0 0.0
2017-Sep-03 22:30N 52°25' E 004°46'0 0.0
2017-Sep-03 22:01N 52°25' E 004°46'0 0.0
2017-Sep-03 21:30N 52°25' E 004°46'0 0.0
2017-Sep-03 21:00N 52°25' E 004°46'0 0.0
2017-Sep-03 20:31N 52°25' E 004°46'0 0.0
2017-Sep-03 20:01N 52°25' E 004°46'0 0.0
2017-Sep-03 19:30N 52°25' E 004°46'0 0.0
2017-Sep-03 19:01N 52°25' E 004°46'0 0.0
2017-Sep-03 18:30N 52°25' E 004°46'0 0.0
2017-Sep-03 18:00N 52°25' E 004°46'0 0.0
2017-Sep-03 17:30N 52°25' E 004°46'0 0.0
2017-Sep-03 17:01N 52°25' E 004°46'0 0.0
2017-Sep-03 16:31N 52°25' E 004°46'0 0.0
2017-Sep-03 16:01N 52°25' E 004°46'0 0.0
2017-Sep-03 15:31N 52°25' E 004°46'0 0.0
2017-Sep-03 15:00N 52°25' E 004°46'0 0.0
2017-Sep-03 14:01N 52°25' E 004°46'0 0.0
2017-Sep-03 13:30N 52°25' E 004°46'0 0.0
2017-Sep-03 13:01N 52°25' E 004°46'0 0.0
2017-Sep-03 12:30N 52°25' E 004°46'0 0.0
2017-Sep-03 12:01N 52°25' E 004°46'0 0.0
2017-Sep-03 11:30N 52°25' E 004°46'0 0.0
2017-Sep-03 11:01N 52°25' E 004°46'0 0.0
2017-Sep-03 10:30N 52°25' E 004°46'0 0.0
2017-Sep-03 10:01N 52°25' E 004°46'0 0.0
2017-Sep-03 09:31N 52°25' E 004°46'0 0.0
2017-Sep-03 09:00N 52°25' E 004°46'0 0.0
2017-Sep-03 08:31N 52°25' E 004°46'0 0.0
2017-Sep-03 08:01N 52°25' E 004°46'0 0.0
2017-Sep-03 07:30N 52°25' E 004°46'0 0.0
2017-Sep-03 07:00N 52°25' E 004°46'0 0.0
2017-Sep-03 06:31N 52°25' E 004°46'0 0.0
2017-Sep-03 06:00N 52°25' E 004°46'0 0.0
2017-Sep-03 05:30N 52°25' E 004°46'0 0.0
2017-Sep-03 05:01N 52°25' E 004°46'0 0.0
2017-Sep-03 04:31N 52°25' E 004°46'0 0.0
2017-Sep-03 04:00N 52°25' E 004°46'0 0.0
2017-Sep-03 03:31N 52°25' E 004°46'0 0.0
2017-Sep-03 03:00N 52°25' E 004°46'0 0.0
2017-Sep-03 02:30N 52°25' E 004°46'0 0.1
2017-Sep-03 02:01N 52°25' E 004°46'1 1.8
2017-Sep-03 01:29N 52°25' E 004°45'0 0.0
2017-Sep-03 00:59N 52°25' E 004°45'0 0.0
2017-Sep-03 00:20N 52°25' E 004°45'0 0.0
2017-Sep-02 23:59N 52°25' E 004°45'0 0.0
2017-Sep-02 23:20N 52°25' E 004°45'0 0.0
2017-Sep-02 22:59N 52°25' E 004°45'0 0.0
2017-Sep-02 22:26N 52°25' E 004°45'0 0.0
2017-Sep-02 21:56N 52°25' E 004°45'0 0.0
2017-Sep-02 21:26N 52°25' E 004°45'0 0.0
2017-Sep-02 20:59N 52°25' E 004°45'0 0.0
2017-Sep-02 20:29N 52°25' E 004°45'0 0.0
2017-Sep-02 19:59N 52°25' E 004°45'0 0.0
2017-Sep-02 19:29N 52°25' E 004°45'0 0.0
2017-Sep-02 18:59N 52°25' E 004°45'0 0.0
2017-Sep-02 18:29N 52°25' E 004°45'0 0.0
2017-Sep-02 17:56N 52°25' E 004°45'0 0.0
2017-Sep-02 17:29N 52°25' E 004°45'0 0.0
2017-Sep-02 16:59N 52°25' E 004°45'0 0.0
2017-Sep-02 16:20N 52°25' E 004°45'0 0.0
2017-Sep-02 15:59N 52°25' E 004°45'0 0.0
2017-Sep-02 15:29N 52°25' E 004°45'0 0.0
2017-Sep-02 14:59N 52°25' E 004°45'0 0.0
2017-Sep-02 14:26N 52°25' E 004°45'0 0.0
2017-Sep-02 13:53N 52°25' E 004°45'0 0.0
2017-Sep-02 13:29N 52°25' E 004°45'0 0.0
2017-Sep-02 12:53N 52°25' E 004°45'0 0.0
2017-Sep-02 12:29N 52°25' E 004°45'0 0.0
2017-Sep-02 11:59N 52°25' E 004°45'0 0.0
2017-Sep-02 11:29N 52°25' E 004°45'0 0.0
2017-Sep-02 10:56N 52°25' E 004°45'0 0.0
2017-Sep-02 10:29N 52°25' E 004°45'0 0.0
2017-Sep-02 09:59N 52°25' E 004°45'0 0.0
2017-Sep-02 09:29N 52°25' E 004°45'0 0.0
2017-Sep-02 08:59N 52°25' E 004°45'0 0.0
2017-Sep-02 08:23N 52°25' E 004°45'0 0.0
2017-Sep-02 07:59N 52°25' E 004°45'0 0.0
2017-Sep-02 06:56N 52°25' E 004°45'0 0.0
2017-Sep-02 06:26N 52°25' E 004°45'0 0.0
2017-Sep-02 05:59N 52°25' E 004°45'0 0.0
2017-Sep-02 05:29N 52°25' E 004°45'0 0.0
2017-Sep-02 04:59N 52°25' E 004°45'0 0.0
2017-Sep-02 04:29N 52°25' E 004°45'0 0.0
2017-Sep-02 03:53N 52°25' E 004°45'0 0.0
2017-Sep-02 03:26N 52°25' E 004°45'0 0.0
2017-Sep-02 02:59N 52°25' E 004°45'0 0.0
2017-Sep-02 02:11N 52°25' E 004°45'0 0.0
2017-Sep-02 01:59N 52°25' E 004°45'0 0.0
2017-Sep-02 01:20N 52°25' E 004°45'0 0.0
2017-Sep-02 00:50N 52°25' E 004°45'0 0.0
2017-Sep-02 00:26N 52°25' E 004°45'0 0.0
2017-Sep-01 23:56N 52°25' E 004°45'0 0.0
2017-Sep-01 23:29N 52°25' E 004°45'0 0.0
2017-Sep-01 22:53N 52°25' E 004°45'0 0.0
2017-Sep-01 22:29N 52°25' E 004°45'0 0.0
2017-Sep-01 21:56N 52°25' E 004°45'0 0.0
2017-Sep-01 21:29N 52°25' E 004°45'0 0.0
2017-Sep-01 20:47N 52°25' E 004°45'0 0.0
2017-Sep-01 20:23N 52°25' E 004°45'0 0.0
2017-Sep-01 19:56N 52°25' E 004°45'0 0.0
2017-Sep-01 19:29N 52°25' E 004°45'0 0.0
2017-Sep-01 18:56N 52°25' E 004°45'0 0.0
2017-Sep-01 18:23N 52°25' E 004°45'0 0.0
2017-Sep-01 16:56N 52°25' E 004°45'0 0.0
2017-Sep-01 16:29N 52°25' E 004°45'0 0.0
2017-Sep-01 15:59N 52°25' E 004°45'0 0.0
2017-Sep-01 15:29N 52°25' E 004°45'0 0.0
2017-Sep-01 14:59N 52°25' E 004°45'0 0.0
2017-Sep-01 14:29N 52°25' E 004°45'0 0.0
2017-Sep-01 13:50N 52°25' E 004°45'0 0.0
2017-Sep-01 13:31N 52°25' E 004°45'1 1.7
2017-Sep-01 13:00N 52°26' E 004°45'4 7.4
2017-Sep-01 12:30N 52°28' E 004°40'2 4.0
2017-Sep-01 12:00N 52°28' E 004°36'1 1.8
2017-Sep-01 11:30N 52°28' E 004°35'5 9.8
2017-Sep-01 11:00N 52°29' E 004°27'3 5.9
2017-Sep-01 10:30N 52°29' E 004°22'4 8.5
2017-Sep-01 10:00N 52°29' E 004°15'7 6.7
2017-Sep-01 08:55N 52°27' E 004°04'0 0.1
2017-Sep-01 08:25N 52°27' E 004°04'0 0.0
2017-Sep-01 07:58N 52°27' E 004°04'0 0.1
2017-Sep-01 07:25N 52°27' E 004°04'0 0.0
2017-Sep-01 06:58N 52°27' E 004°04'0 0.0
2017-Sep-01 06:28N 52°27' E 004°04'0 0.0
2017-Sep-01 05:58N 52°27' E 004°04'0 0.0
2017-Sep-01 05:25N 52°27' E 004°04'0 0.0
2017-Sep-01 04:58N 52°27' E 004°04'0 0.1
2017-Sep-01 04:28N 52°27' E 004°04'0 0.3
2017-Sep-01 03:58N 52°27' E 004°04'0 0.1
2017-Sep-01 03:28N 52°27' E 004°04'0 0.1
2017-Sep-01 02:58N 52°27' E 004°04'0 0.1
2017-Sep-01 02:28N 52°27' E 004°04'0 0.1
2017-Sep-01 01:58N 52°27' E 004°04'0 0.0
2017-Sep-01 01:28N 52°27' E 004°04'0 0.0
2017-Sep-01 00:58N 52°27' E 004°04'0 0.0
2017-Sep-01 00:28N 52°27' E 004°04'0 0.0
2017-Aug-31 23:58N 52°27' E 004°04'0 0.0
2017-Aug-31 23:25N 52°27' E 004°04'0 0.1
2017-Aug-31 22:58N 52°27' E 004°04'0 0.0
2017-Aug-31 22:28N 52°27' E 004°04'0 0.0
2017-Aug-31 21:58N 52°27' E 004°04'0 0.1
2017-Aug-31 21:10N 52°27' E 004°04'0 0.0
2017-Aug-31 20:52N 52°27' E 004°04'0 0.1
2017-Aug-31 20:28N 52°27' E 004°04'0 0.2
2017-Aug-31 19:58N 52°27' E 004°04'0 0.1
2017-Aug-31 19:28N 52°27' E 004°04'0 0.0
2017-Aug-31 18:58N 52°27' E 004°04'0 0.1
2017-Aug-31 18:28N 52°27' E 004°04'0 0.1
2017-Aug-31 17:58N 52°27' E 004°04'0 0.0
2017-Aug-31 16:58N 52°27' E 004°04'0 0.0
2017-Aug-31 16:07N 52°27' E 004°04'0 0.1
2017-Aug-31 15:43N 52°27' E 004°04'0 0.0
2017-Aug-31 15:25N 52°27' E 004°04'0 0.1
2017-Aug-31 14:55N 52°27' E 004°04'0 0.1
2017-Aug-31 14:16N 52°27' E 004°04'0 0.0
2017-Aug-31 13:58N 52°27' E 004°04'0 0.0
2017-Aug-31 13:16N 52°27' E 004°04'0 0.0
2017-Aug-31 12:34N 52°27' E 004°04'0 0.1
2017-Aug-31 12:22N 52°27' E 004°04'0 0.0
2017-Aug-31 11:58N 52°27' E 004°04'0 0.0
2017-Aug-31 11:25N 52°27' E 004°04'0 0.0
2017-Aug-31 10:43N 52°27' E 004°04'0 0.0
2017-Aug-31 10:28N 52°27' E 004°04'0 0.0
2017-Aug-31 09:58N 52°27' E 004°04'0 0.1
2017-Aug-31 09:22N 52°27' E 004°04'0 0.0
2017-Aug-31 08:52N 52°27' E 004°04'0 0.0
2017-Aug-31 08:25N 52°27' E 004°04'0 0.1
2017-Aug-31 07:52N 52°27' E 004°04'0 0.0
2017-Aug-31 07:25N 52°27' E 004°04'0 0.0
2017-Aug-31 06:46N 52°27' E 004°04'0 0.1
2017-Aug-31 06:22N 52°27' E 004°04'0 0.0
2017-Aug-31 05:49N 52°27' E 004°04'0 0.0
2017-Aug-31 05:28N 52°27' E 004°04'0 0.0
2017-Aug-31 04:55N 52°27' E 004°04'0 0.0
2017-Aug-31 04:28N 52°27' E 004°04'0 0.0
2017-Aug-31 03:58N 52°27' E 004°04'0 0.0
2017-Aug-31 03:19N 52°27' E 004°04'0 0.0
2017-Aug-31 02:58N 52°27' E 004°04'0 0.0
2017-Aug-31 02:25N 52°27' E 004°04'0 0.1
2017-Aug-31 01:52N 52°27' E 004°04'0 0.0
2017-Aug-31 01:16N 52°27' E 004°04'0 0.0
2017-Aug-31 00:58N 52°27' E 004°04'0 0.0
2017-Aug-31 00:28N 52°27' E 004°04'0 0.1
2017-Aug-30 23:49N 52°27' E 004°04'0 0.0
2017-Aug-30 23:25N 52°27' E 004°04'0 0.1
2017-Aug-30 22:52N 52°27' E 004°04'0 0.0
2017-Aug-30 22:28N 52°27' E 004°04'0 0.0
2017-Aug-30 21:52N 52°27' E 004°04'0 0.0
2017-Aug-30 21:19N 52°27' E 004°04'0 0.0
2017-Aug-30 20:43N 52°27' E 004°04'0 0.2
2017-Aug-30 20:25N 52°27' E 004°04'0 0.0
2017-Aug-30 19:58N 52°27' E 004°04'0 0.0
2017-Aug-30 19:25N 52°27' E 004°04'0 0.0
2017-Aug-30 17:58N 52°27' E 004°04'0 0.0
2017-Aug-30 17:25N 52°27' E 004°04'0 0.1
2017-Aug-30 16:58N 52°27' E 004°04'  

Dump ship's entire track history